createdAt,value
2022-08-09T00:00:04.966Z,15.69
2022-08-09T00:06:16.143Z,15.83
2022-08-09T00:10:35.693Z,15.78
2022-08-09T00:15:59.317Z,15.70
2022-08-09T00:20:59.527Z,15.45
2022-08-09T00:26:01.147Z,15.38
2022-08-09T00:31:09.150Z,15.37
2022-08-09T00:36:30.660Z,15.52
2022-08-09T00:44:11.608Z,15.45
2022-08-09T00:47:01.695Z,15.32
2022-08-09T00:52:17.318Z,15.18
2022-08-09T00:57:24.677Z,15.13
2022-08-09T01:02:40.370Z,15.03
2022-08-09T01:08:03.359Z,14.98
2022-08-09T01:13:11.789Z,14.86
2022-08-09T01:18:18.305Z,14.80
2022-08-09T01:24:02.270Z,14.73
2022-08-09T01:29:07.008Z,14.73
2022-08-09T01:34:12.823Z,14.67
2022-08-09T01:39:23.126Z,14.72
2022-08-09T01:44:26.014Z,14.76
2022-08-09T01:49:39.222Z,14.71
2022-08-09T01:54:55.489Z,14.62
2022-08-09T02:00:19.177Z,14.59
2022-08-09T02:05:37.654Z,14.55
2022-08-09T02:10:50.966Z,14.53
2022-08-09T02:15:56.310Z,14.56
2022-08-09T02:21:05.871Z,14.51
2022-08-09T02:26:24.882Z,14.36
2022-08-09T02:31:36.274Z,14.27
2022-08-09T02:36:42.723Z,14.21
2022-08-09T02:41:52.966Z,14.12
2022-08-09T02:46:57.383Z,14.00
2022-08-09T02:52:00.670Z,14.02
2022-08-09T02:57:13.888Z,14.07
2022-08-09T03:02:26.236Z,14.04
2022-08-09T03:07:34.351Z,13.97
2022-08-09T03:12:39.032Z,13.84
2022-08-09T03:17:40.918Z,13.70
2022-08-09T03:22:44.905Z,13.67
2022-08-09T03:27:51.800Z,13.63
2022-08-09T03:32:55.592Z,13.58
2022-08-09T03:37:58.752Z,13.52
2022-08-09T03:43:00.460Z,13.46
2022-08-09T03:48:03.592Z,13.47
2022-08-09T03:53:07.249Z,13.51
2022-08-09T03:58:16.928Z,13.54
2022-08-09T04:03:35.284Z,13.73
2022-08-09T04:08:46.568Z,13.88
2022-08-09T04:14:54.273Z,14.02
2022-08-09T04:19:11.090Z,14.02
2022-08-09T04:24:31.926Z,14.00
2022-08-09T04:29:34.858Z,14.05
2022-08-09T04:34:36.555Z,14.14
2022-08-09T04:39:40.617Z,14.25
2022-08-09T04:44:49.435Z,14.49
2022-08-09T04:49:55.094Z,14.77
2022-08-09T04:54:59.613Z,15.00
2022-08-09T05:00:01.592Z,15.04
2022-08-09T05:05:10.096Z,15.06
2022-08-09T05:10:13.040Z,15.24
2022-08-09T05:15:24.609Z,15.47
2022-08-09T05:20:36.114Z,15.75
2022-08-09T05:25:38.349Z,15.87
2022-08-09T05:30:47.899Z,16.09
2022-08-09T05:35:50.893Z,16.41
2022-08-09T05:40:52.904Z,16.79
2022-08-09T05:45:56.790Z,17.13
2022-08-09T05:51:30.318Z,17.26
2022-08-09T05:56:21.059Z,17.52
2022-08-09T06:01:33.595Z,17.70
2022-08-09T06:06:35.930Z,17.89
2022-08-09T06:11:41.215Z,18.32
2022-08-09T06:16:59.118Z,18.87
2022-08-09T06:22:07.029Z,19.36
2022-08-09T06:27:17.115Z,19.41
2022-08-09T06:32:53.110Z,19.45
2022-08-09T06:37:52.871Z,19.53
2022-08-09T06:43:03.155Z,19.87
2022-08-09T06:48:04.771Z,20.33
2022-08-09T06:53:06.663Z,20.72
2022-08-09T06:58:08.207Z,21.18
2022-08-09T07:03:29.796Z,21.28
2022-08-09T07:08:34.305Z,21.56
2022-08-09T07:13:44.898Z,21.86
2022-08-09T07:18:57.604Z,21.97
2022-08-09T07:23:59.196Z,22.10
2022-08-09T07:29:08.503Z,22.37
2022-08-09T07:34:19.384Z,22.65
2022-08-09T07:39:40.349Z,22.71
2022-08-09T07:44:51.563Z,22.68
2022-08-09T07:50:07.717Z,22.89
2022-08-09T07:55:11.769Z,23.01
2022-08-09T08:00:13.766Z,23.25
2022-08-09T08:05:22.646Z,23.39
2022-08-09T08:10:27.291Z,23.58
2022-08-09T08:15:30.024Z,23.71
2022-08-09T08:20:37.331Z,23.87
2022-08-09T08:25:43.851Z,24.03
2022-08-09T08:30:47.492Z,24.21
2022-08-09T08:35:58.742Z,24.35
2022-08-09T08:41:06.276Z,24.60
2022-08-09T08:46:32.151Z,24.67
2022-08-09T08:51:54.464Z,24.82
2022-08-09T08:56:55.426Z,24.93
2022-08-09T09:01:59.879Z,25.10
2022-08-09T09:07:09.898Z,25.28
2022-08-09T09:12:16.709Z,25.42
2022-08-09T09:17:19.738Z,25.76
2022-08-09T09:22:23.872Z,26.02
2022-08-09T09:28:03.719Z,25.97
2022-08-09T09:33:16.751Z,25.99
2022-08-09T09:38:27.630Z,26.14
2022-08-09T09:43:41.540Z,26.44
2022-08-09T09:49:06.390Z,26.77
2022-08-09T09:54:20.419Z,26.93
2022-08-09T09:59:35.962Z,27.15
2022-08-09T10:04:38.118Z,27.23
2022-08-09T10:09:54.873Z,27.60
2022-08-09T10:15:17.551Z,27.57
2022-08-09T10:20:33.021Z,27.74
2022-08-09T10:26:06.686Z,27.95
2022-08-09T10:36:22.078Z,28.24
2022-08-09T10:41:24.139Z,28.20
2022-08-09T10:46:57.721Z,28.25
2022-08-09T10:52:20.179Z,28.15
2022-08-09T10:57:23.512Z,28.36
2022-08-09T11:03:27.119Z,28.72
2022-08-09T11:08:47.163Z,28.85
2022-08-09T11:14:16.432Z,28.87
2022-08-09T11:20:10.561Z,28.74
2022-08-09T11:25:25.938Z,28.85
2022-08-09T11:30:38.488Z,28.83
2022-08-09T11:35:54.735Z,28.95
2022-08-09T11:40:56.477Z,29.13
2022-08-09T11:46:00.548Z,29.14
2022-08-09T11:52:49.358Z,29.07
2022-08-09T11:56:42.832Z,29.07
2022-08-09T12:02:16.192Z,29.26
2022-08-09T12:07:11.070Z,29.34
2022-08-09T12:12:20.582Z,29.29
2022-08-09T12:17:41.597Z,29.23
2022-08-09T12:22:47.306Z,29.27
2022-08-09T12:29:14.402Z,29.32
2022-08-09T12:33:35.572Z,29.37
2022-08-09T12:38:57.595Z,29.30
2022-08-09T12:44:06.490Z,29.42
2022-08-09T12:49:09.559Z,29.39
2022-08-09T12:54:11.149Z,29.40
2022-08-09T12:59:19.887Z,29.52
2022-08-09T13:04:36.519Z,29.55
2022-08-09T13:09:40.939Z,29.48
2022-08-09T13:14:48.854Z,29.55
2022-08-09T13:20:07.511Z,29.57
2022-08-09T13:25:13.875Z,29.62
2022-08-09T13:30:49.441Z,29.78
2022-08-09T13:36:38.656Z,29.61
2022-08-09T13:41:53.917Z,29.64
2022-08-09T13:47:16.397Z,29.77
2022-08-09T13:51:52.383Z,29.74
2022-08-09T13:57:06.350Z,29.88
2022-08-09T14:02:08.496Z,29.92
2022-08-09T14:07:11.599Z,29.83
2022-08-09T14:12:15.752Z,29.75
2022-08-09T14:17:17.548Z,29.70
2022-08-09T14:22:24.859Z,29.78
2022-08-09T14:27:26.687Z,29.66
2022-08-09T14:32:30.989Z,29.71
2022-08-09T14:37:41.380Z,29.75
2022-08-09T14:42:55.661Z,29.79
2022-08-09T14:48:00.311Z,29.76
2022-08-09T14:53:11.228Z,29.76
2022-08-09T14:58:13.436Z,29.72
2022-08-09T15:03:20.255Z,29.76
2022-08-09T15:08:23.826Z,29.84
2022-08-09T15:13:26.016Z,29.88
2022-08-09T15:18:48.426Z,29.80
2022-08-09T15:24:01.983Z,29.83
2022-08-09T15:30:48.593Z,29.76
2022-08-09T15:34:35.627Z,29.71
2022-08-09T15:39:53.495Z,29.66
2022-08-09T15:44:58.335Z,29.71
2022-08-09T15:50:04.937Z,29.59
2022-08-09T15:55:11.016Z,29.61
2022-08-09T16:00:25.357Z,29.63
2022-08-09T16:05:47.238Z,29.55
2022-08-09T16:10:55.822Z,29.49
2022-08-09T16:16:10.256Z,29.46
2022-08-09T16:21:17.340Z,29.44
2022-08-09T16:26:35.254Z,29.44
2022-08-09T16:32:19.257Z,29.42
2022-08-09T16:36:59.672Z,29.40
2022-08-09T16:42:03.974Z,29.39
2022-08-09T16:48:40.515Z,29.33
2022-08-09T16:52:28.171Z,29.20
2022-08-09T16:58:08.485Z,29.15
2022-08-09T17:02:51.347Z,29.16
2022-08-09T17:08:46.217Z,29.05
2022-08-09T17:13:14.846Z,28.97
2022-08-09T17:18:16.441Z,28.88
2022-08-09T17:23:37.207Z,28.83
2022-08-09T17:28:50.233Z,28.75
2022-08-09T17:33:53.506Z,28.65
2022-08-09T17:38:57.892Z,28.62
2022-08-09T17:44:37.901Z,28.54
2022-08-09T17:49:22.432Z,28.41
2022-08-09T17:54:25.361Z,28.26
2022-08-09T17:59:38.450Z,28.14
2022-08-09T18:04:40.144Z,27.98
2022-08-09T18:09:42.806Z,27.95
2022-08-09T18:14:50.156Z,27.85
2022-08-09T18:20:54.437Z,27.64
2022-08-09T18:25:19.827Z,27.42
2022-08-09T18:30:48.609Z,27.23
2022-08-09T18:35:58.844Z,26.95
2022-08-09T18:41:02.202Z,26.63
2022-08-09T18:46:46.946Z,26.48
2022-08-09T18:51:38.609Z,26.28
2022-08-09T18:56:53.839Z,25.92
2022-08-09T19:01:56.900Z,25.58
2022-08-09T19:06:58.580Z,25.24
2022-08-09T19:12:03.844Z,24.91
2022-08-09T19:17:05.673Z,24.60
2022-08-09T19:22:11.991Z,24.34
2022-08-09T19:27:16.757Z,24.28
2022-08-09T19:32:19.120Z,24.04
2022-08-09T19:37:21.111Z,23.76
2022-08-09T19:42:28.352Z,23.39
2022-08-09T19:47:29.975Z,23.09
2022-08-09T19:52:51.446Z,23.03
2022-08-09T19:57:53.918Z,22.96
2022-08-09T20:04:10.707Z,22.83
2022-08-09T20:08:25.198Z,22.81
2022-08-09T20:13:36.763Z,22.60
2022-08-09T20:18:39.779Z,22.38
2022-08-09T20:24:01.479Z,22.15
2022-08-09T20:29:10.324Z,21.87
2022-08-09T20:34:20.667Z,21.62
2022-08-09T20:40:16.585Z,21.40
2022-08-09T20:44:50.925Z,21.16
2022-08-09T20:50:10.223Z,20.96
2022-08-09T20:55:17.202Z,20.84
2022-08-09T21:00:31.215Z,20.69
2022-08-09T21:05:52.969Z,20.51
2022-08-09T21:10:55.202Z,20.29
2022-08-09T21:15:57.566Z,20.11
2022-08-09T21:21:02.291Z,19.93
2022-08-09T21:26:19.536Z,19.67
2022-08-09T21:31:21.155Z,19.43
2022-08-09T21:36:27.992Z,19.22
2022-08-09T21:41:59.870Z,19.04
2022-08-09T21:46:55.193Z,18.91
2022-08-09T21:52:04.882Z,18.77
2022-08-09T21:57:07.275Z,18.71
2022-08-09T22:02:36.471Z,18.53
2022-08-09T22:07:51.640Z,18.31
2022-08-09T22:12:54.116Z,18.12
2022-08-09T22:17:56.408Z,18.04
2022-08-09T22:23:00.912Z,17.92
2022-08-09T22:28:06.575Z,17.82
2022-08-09T22:33:09.404Z,17.72
2022-08-09T22:38:11.426Z,17.66
2022-08-09T22:43:26.295Z,17.59
2022-08-09T22:48:38.384Z,17.53
2022-08-09T22:53:58.727Z,17.55
2022-08-09T22:59:06.082Z,17.55
2022-08-09T23:04:25.723Z,17.58
2022-08-09T23:09:27.648Z,17.56
2022-08-09T23:14:37.325Z,17.55
2022-08-09T23:20:06.065Z,17.61
2022-08-09T23:25:10.832Z,17.54
2022-08-09T23:30:12.586Z,17.44
2022-08-09T23:35:14.670Z,17.35
2022-08-09T23:46:17.524Z,17.39
2022-08-09T23:51:19.076Z,17.34
2022-08-09T23:56:51.947Z,17.34
